Time,TemperatureF,DewpointF,PressureIn,WindDirection,WindDirectionDegrees,WindSpeedMPH,WindSpeedGustMPH,Humidity,HourlyPrecipIn,Conditions,Clouds,dailyrainin,SolarRadiationWatts/m^2,SoftwareType,DateUTC
2013-05-09 00:05:00,52.2,48.0,30.16,NW,321,0.0,0.0,86,0.00,,,0.00,0.0,meteohub,2013-05-09 07:05:00,
2013-05-09 00:10:00,52.0,47.8,30.16,NW,321,0.0,0.0,86,0.00,,,0.00,0.0,meteohub,2013-05-09 07:10:00,
2013-05-09 00:15:00,52.0,47.8,30.16,NW,321,0.0,0.0,86,0.00,,,0.00,0.0,meteohub,2013-05-09 07:15:00,
2013-05-09 00:20:00,51.6,47.5,30.17,NW,321,0.0,0.0,86,0.00,,,0.00,0.0,meteohub,2013-05-09 07:20:00,
2013-05-09 00:25:00,51.6,47.8,30.17,NW,321,0.0,0.0,87,0.00,,,0.00,0.0,meteohub,2013-05-09 07:25:00,
2013-05-09 00:30:00,51.4,47.5,30.17,NW,321,0.0,0.0,86,0.00,,,0.00,0.0,meteohub,2013-05-09 07:30:00,
2013-05-09 00:35:00,51.1,47.7,30.17,NW,321,0.0,0.0,88,0.00,,,0.00,0.0,meteohub,2013-05-09 07:35:00,
2013-05-09 00:40:00,51.1,47.7,30.17,NW,321,0.0,0.0,88,0.00,,,0.00,0.0,meteohub,2013-05-09 07:40:00,
2013-05-09 00:45:00,50.7,47.3,30.17,NW,321,0.0,0.0,88,0.00,,,0.00,0.0,meteohub,2013-05-09 07:45:00,
2013-05-09 00:50:00,50.7,47.3,30.17,NW,321,0.0,0.0,88,0.00,,,0.00,0.0,meteohub,2013-05-09 07:50:00,
2013-05-09 00:55:00,50.7,47.3,30.17,NW,321,0.0,0.0,88,0.00,,,0.00,0.0,meteohub,2013-05-09 07:55:00,
2013-05-09 01:00:00,50.5,47.1,30.17,NW,321,0.0,0.0,88,0.00,,,0.00,0.0,meteohub,2013-05-09 08:00:00,
2013-05-09 01:05:00,50.4,46.9,30.17,NW,321,0.0,1.0,88,0.00,,,0.00,0.0,meteohub,2013-05-09 08:05:00,
2013-05-09 01:10:00,50.2,47.1,30.17,NW,321,0.0,1.0,89,0.00,,,0.00,0.0,meteohub,2013-05-09 08:10:00,
2013-05-09 01:15:00,50.2,46.8,30.17,NW,321,0.0,1.0,88,0.00,,,0.00,0.0,meteohub,2013-05-09 08:15:00,
2013-05-09 01:20:00,50.2,46.8,30.18,NW,321,0.0,1.0,88,0.00,,,0.00,0.0,meteohub,2013-05-09 08:20:00,
2013-05-09 01:25:00,49.8,46.8,30.18,NW,321,0.0,0.0,89,0.00,,,0.00,0.0,meteohub,2013-05-09 08:25:00,
2013-05-09 01:30:00,49.8,46.8,30.18,NW,321,0.0,0.0,89,0.00,,,0.00,0.0,meteohub,2013-05-09 08:30:00,
2013-05-09 01:35:00,49.6,46.6,30.18,NW,321,0.0,0.0,89,0.00,,,0.00,0.0,meteohub,2013-05-09 08:35:00,
2013-05-09 01:40:00,49.5,46.4,30.18,NW,321,0.0,0.0,89,0.00,,,0.00,0.0,meteohub,2013-05-09 08:40:00,
2013-05-09 01:45:00,49.5,46.6,30.18,NW,321,0.0,0.0,90,0.00,,,0.00,0.0,meteohub,2013-05-09 08:45:00,
2013-05-09 01:50:00,49.3,46.4,30.18,NW,321,0.0,0.0,90,0.00,,,0.00,0.0,meteohub,2013-05-09 08:50:00,
2013-05-09 01:55:00,49.1,46.2,30.18,NW,321,0.0,0.0,90,0.00,,,0.00,0.0,meteohub,2013-05-09 08:55:00,
2013-05-09 02:00:00,49.1,46.2,30.18,NW,321,0.0,1.0,90,0.00,,,0.00,0.0,meteohub,2013-05-09 09:00:00,
2013-05-09 02:05:00,48.9,46.0,30.18,NW,321,0.0,1.0,90,0.00,,,0.00,0.0,meteohub,2013-05-09 09:05:00,
2013-05-09 02:10:00,48.7,45.9,30.19,NW,321,0.0,1.0,90,0.00,,,0.00,0.0,meteohub,2013-05-09 09:10:00,
2013-05-09 02:15:00,48.6,45.7,30.19,NW,321,0.0,1.0,90,0.00,,,0.00,0.0,meteohub,2013-05-09 09:15:00,
2013-05-09 02:20:00,48.6,45.7,30.19,NW,321,0.0,0.0,90,0.00,,,0.00,0.0,meteohub,2013-05-09 09:20:00,
2013-05-09 02:25:00,48.6,45.7,30.19,NW,321,0.0,1.0,90,0.00,,,0.00,0.0,meteohub,2013-05-09 09:25:00,
2013-05-09 02:30:00,48.4,45.9,30.19,NW,321,0.0,2.0,91,0.00,,,0.00,0.0,meteohub,2013-05-09 09:30:00,
2013-05-09 02:35:00,48.2,45.7,30.19,NW,321,0.0,2.0,91,0.00,,,0.00,0.0,meteohub,2013-05-09 09:35:00,
2013-05-09 02:40:00,48.2,45.7,30.19,NW,321,0.0,2.0,91,0.00,,,0.00,0.0,meteohub,2013-05-09 09:40:00,
2013-05-09 02:45:00,48.0,45.5,30.19,NW,321,0.0,2.0,91,0.00,,,0.00,0.0,meteohub,2013-05-09 09:45:00,
2013-05-09 02:50:00,47.8,45.3,30.19,NW,321,0.0,1.0,91,0.00,,,0.00,0.0,meteohub,2013-05-09 09:50:00,
2013-05-09 02:56:00,47.8,45.3,30.20,NW,321,0.0,1.0,91,0.00,,,0.00,0.0,meteohub,2013-05-09 09:56:00,
2013-05-09 03:01:00,47.7,45.1,30.20,NW,321,0.0,1.0,91,0.00,,,0.00,0.0,meteohub,2013-05-09 10:01:00,
2013-05-09 03:06:00,47.7,45.1,30.20,NW,321,0.0,1.0,91,0.00,,,0.00,0.0,meteohub,2013-05-09 10:06:00,
2013-05-09 03:11:00,47.7,45.1,30.20,NW,321,0.0,1.0,91,0.00,,,0.00,0.0,meteohub,2013-05-09 10:11:00,
2013-05-09 03:16:00,47.7,45.1,30.20,NW,321,0.0,1.0,91,0.00,,,0.00,0.0,meteohub,2013-05-09 10:16:00,
2013-05-09 03:21:00,47.5,45.3,30.20,NW,321,0.0,1.0,92,0.00,,,0.00,0.0,meteohub,2013-05-09 10:21:00,
2013-05-09 03:26:00,47.3,45.1,30.21,NW,321,0.0,1.0,92,0.00,,,0.00,0.0,meteohub,2013-05-09 10:26:00,
2013-05-09 03:31:00,47.3,45.1,30.20,NW,321,0.0,1.0,92,0.00,,,0.00,0.0,meteohub,2013-05-09 10:31:00,
2013-05-09 03:36:00,47.1,45.0,30.20,NW,321,0.0,1.0,92,0.00,,,0.00,0.0,meteohub,2013-05-09 10:36:00,
2013-05-09 03:41:00,46.9,44.8,30.20,NW,321,0.0,1.0,92,0.00,,,0.00,0.0,meteohub,2013-05-09 10:41:00,
2013-05-09 03:46:00,46.9,44.8,30.20,NW,321,0.0,2.0,92,0.00,,,0.00,0.0,meteohub,2013-05-09 10:46:00,
2013-05-09 03:51:00,46.8,44.6,30.20,NW,321,0.0,2.0,92,0.00,,,0.00,0.0,meteohub,2013-05-09 10:51:00,
2013-05-09 03:56:00,46.8,44.6,30.20,NW,321,0.0,1.0,92,0.00,,,0.00,0.0,meteohub,2013-05-09 10:56:00,
2013-05-09 04:01:00,46.8,44.6,30.21,NW,321,0.0,1.0,92,0.00,,,0.00,0.0,meteohub,2013-05-09 11:01:00,
2013-05-09 04:06:00,46.6,44.4,30.20,NW,321,0.0,1.0,92,0.00,,,0.00,0.0,meteohub,2013-05-09 11:06:00,
2013-05-09 04:11:00,46.6,44.4,30.20,NW,321,0.0,1.0,92,0.00,,,0.00,0.0,meteohub,2013-05-09 11:11:00,
2013-05-09 04:16:00,46.4,44.2,30.21,NW,321,0.0,1.0,92,0.00,,,0.00,0.0,meteohub,2013-05-09 11:16:00,
2013-05-09 04:21:00,46.2,44.1,30.20,NW,321,0.0,1.0,92,0.00,,,0.00,0.0,meteohub,2013-05-09 11:21:00,
2013-05-09 04:26:00,46.2,44.1,30.20,NW,321,0.0,2.0,92,0.00,,,0.00,0.0,meteohub,2013-05-09 11:26:00,
2013-05-09 04:31:00,46.0,43.9,30.20,NW,321,0.0,2.0,92,0.00,,,0.00,0.0,meteohub,2013-05-09 11:31:00,
2013-05-09 04:36:00,46.0,44.1,30.20,NW,321,0.0,2.0,93,0.00,,,0.00,0.0,meteohub,2013-05-09 11:36:00,
2013-05-09 04:41:00,46.0,44.1,30.20,NW,321,0.0,2.0,93,0.00,,,0.00,0.0,meteohub,2013-05-09 11:41:00,
2013-05-09 04:46:00,45.9,43.9,30.20,NW,321,0.0,2.0,93,0.00,,,0.00,0.0,meteohub,2013-05-09 11:46:00,
2013-05-09 04:51:00,45.9,43.9,30.20,NW,321,0.0,2.0,93,0.00,,,0.00,0.0,meteohub,2013-05-09 11:51:00,
2013-05-09 04:56:00,45.7,43.7,30.20,NW,321,0.0,1.0,93,0.00,,,0.00,0.0,meteohub,2013-05-09 11:56:00,
2013-05-09 05:01:00,45.5,43.5,30.20,NW,321,0.0,3.0,93,0.00,,,0.00,0.0,meteohub,2013-05-09 12:01:00,
2013-05-09 05:06:00,45.5,43.5,30.20,NW,321,1.0,3.0,93,0.00,,,0.00,0.0,meteohub,2013-05-09 12:06:00,
2013-05-09 05:11:00,45.3,43.3,30.21,NW,321,0.0,3.0,93,0.00,,,0.00,0.0,meteohub,2013-05-09 12:11:00,
2013-05-09 05:16:00,45.3,43.3,30.21,NW,321,0.0,3.0,93,0.00,,,0.00,0.0,meteohub,2013-05-09 12:16:00,
2013-05-09 05:21:00,45.1,43.2,30.21,NW,321,0.0,3.0,93,0.00,,,0.00,0.0,meteohub,2013-05-09 12:21:00,
2013-05-09 05:26:00,45.1,43.2,30.21,NW,321,0.0,2.0,93,0.00,,,0.00,0.0,meteohub,2013-05-09 12:26:00,
2013-05-09 05:31:00,45.1,43.2,30.21,NW,321,1.0,2.0,93,0.00,,,0.00,0.0,meteohub,2013-05-09 12:31:00,
2013-05-09 05:36:00,45.1,43.5,30.21,NW,321,0.0,3.0,94,0.00,,,0.00,0.0,meteohub,2013-05-09 12:36:00,
2013-05-09 05:42:00,45.1,43.5,30.21,NW,321,0.0,3.0,94,0.00,,,0.00,5.0,meteohub,2013-05-09 12:42:00,
2013-05-09 05:47:00,45.1,43.5,30.21,NW,321,0.0,3.0,94,0.00,,,0.00,7.0,meteohub,2013-05-09 12:47:00,
2013-05-09 05:52:00,45.0,43.3,30.21,NW,321,0.0,3.0,94,0.00,,,0.00,9.0,meteohub,2013-05-09 12:52:00,
2013-05-09 05:57:00,44.8,43.2,30.22,NW,321,0.0,2.0,94,0.00,,,0.00,11.0,meteohub,2013-05-09 12:57:00,
2013-05-09 06:02:00,44.8,43.2,30.22,NW,321,1.0,2.0,94,0.00,,,0.00,11.0,meteohub,2013-05-09 13:02:00,
2013-05-09 06:07:00,44.8,43.2,30.22,NW,321,0.0,1.0,94,0.00,,,0.00,12.0,meteohub,2013-05-09 13:07:00,
2013-05-09 06:12:00,44.6,43.0,30.22,NW,321,0.0,1.0,94,0.00,,,0.00,14.0,meteohub,2013-05-09 13:12:00,
2013-05-09 06:17:00,44.6,43.0,30.22,NW,321,0.0,1.0,94,0.00,,,0.00,14.0,meteohub,2013-05-09 13:17:00,
2013-05-09 06:22:00,44.6,43.0,30.22,NW,321,0.0,1.0,94,0.00,,,0.00,16.0,meteohub,2013-05-09 13:22:00,
2013-05-09 06:27:00,44.6,43.0,30.22,NW,321,0.0,1.0,94,0.00,,,0.00,18.0,meteohub,2013-05-09 13:27:00,
2013-05-09 06:32:00,44.6,43.0,30.22,NW,321,0.0,2.0,94,0.00,,,0.00,18.0,meteohub,2013-05-09 13:32:00,
2013-05-09 06:37:00,44.6,43.0,30.22,NW,321,0.0,2.0,94,0.00,,,0.00,19.0,meteohub,2013-05-09 13:37:00,
2013-05-09 06:42:00,44.6,43.0,30.22,NW,321,0.0,2.0,94,0.00,,,0.00,21.0,meteohub,2013-05-09 13:42:00,
2013-05-09 06:47:00,44.6,43.0,30.23,NW,321,1.0,1.0,94,0.00,,,0.00,21.0,meteohub,2013-05-09 13:47:00,
2013-05-09 06:52:00,44.6,43.0,30.23,NW,321,0.0,2.0,94,0.00,,,0.00,23.0,meteohub,2013-05-09 13:52:00,
2013-05-09 06:57:00,44.8,43.2,30.23,NW,321,0.0,2.0,94,0.00,,,0.00,23.0,meteohub,2013-05-09 13:57:00,
2013-05-09 07:02:00,44.8,43.5,30.23,NW,321,0.0,2.0,95,0.00,,,0.00,25.0,meteohub,2013-05-09 14:02:00,
2013-05-09 07:07:00,45.0,43.7,30.23,NW,321,0.0,2.0,95,0.00,,,0.00,25.0,meteohub,2013-05-09 14:07:00,
2013-05-09 07:12:00,45.0,43.7,30.23,NW,321,1.0,2.0,95,0.00,,,0.00,26.0,meteohub,2013-05-09 14:12:00,
2013-05-09 07:17:00,45.0,43.7,30.23,NW,321,0.0,2.0,95,0.00,,,0.00,26.0,meteohub,2013-05-09 14:17:00,
2013-05-09 07:22:00,45.1,43.9,30.23,NW,321,1.0,3.0,95,0.00,,,0.00,28.0,meteohub,2013-05-09 14:22:00,
2013-05-09 07:27:00,45.1,43.9,30.23,NW,321,0.0,3.0,95,0.00,,,0.00,30.0,meteohub,2013-05-09 14:27:00,
2013-05-09 07:32:00,45.1,43.9,30.22,NW,321,2.0,3.0,95,0.00,,,0.00,32.0,meteohub,2013-05-09 14:32:00,
2013-05-09 07:37:00,45.3,44.1,30.23,NW,321,0.0,3.0,95,0.00,,,0.00,33.0,meteohub,2013-05-09 14:37:00,
2013-05-09 07:42:00,45.5,44.2,30.22,NW,321,2.0,3.0,95,0.00,,,0.00,33.0,meteohub,2013-05-09 14:42:00,
2013-05-09 07:47:00,45.7,44.4,30.22,NW,321,0.0,3.0,95,0.00,,,0.00,35.0,meteohub,2013-05-09 14:47:00,
2013-05-09 07:52:00,45.9,44.4,30.22,NW,321,0.0,3.0,95,0.00,,,0.00,35.0,meteohub,2013-05-09 14:52:00,
2013-05-09 07:57:00,46.2,44.8,30.22,NW,321,1.0,3.0,95,0.00,,,0.00,37.0,meteohub,2013-05-09 14:57:00,
2013-05-09 08:02:00,46.6,45.1,30.22,NW,321,2.0,3.0,95,0.00,,,0.00,49.0,meteohub,2013-05-09 15:02:00,
2013-05-09 08:07:00,47.1,45.7,30.22,NW,321,1.0,3.0,95,0.00,,,0.00,318.0,meteohub,2013-05-09 15:07:00,
2013-05-09 08:12:00,47.8,46.2,30.22,NW,321,0.0,3.0,94,0.00,,,0.00,332.0,meteohub,2013-05-09 15:12:00,
2013-05-09 08:18:00,49.8,47.8,30.22,NW,321,0.0,3.0,93,0.00,,,0.00,350.0,meteohub,2013-05-09 15:18:00,
2013-05-09 08:23:00,50.5,47.5,30.21,NW,321,1.0,2.0,89,0.00,,,0.00,369.0,meteohub,2013-05-09 15:23:00,
2013-05-09 08:28:00,52.0,48.6,30.21,NW,321,1.0,3.0,88,0.00,,,0.00,381.0,meteohub,2013-05-09 15:28:00,
2013-05-09 08:33:00,53.2,49.1,30.21,NW,321,0.0,3.0,86,0.00,,,0.00,396.0,meteohub,2013-05-09 15:33:00,
2013-05-09 08:38:00,55.9,49.8,30.21,NW,321,0.0,3.0,80,0.00,,,0.00,417.0,meteohub,2013-05-09 15:38:00,
2013-05-09 08:43:00,56.1,49.6,30.21,NW,321,0.0,3.0,79,0.00,,,0.00,441.0,meteohub,2013-05-09 15:43:00,
2013-05-09 08:48:00,57.2,49.3,30.20,NW,321,1.0,3.0,75,0.00,,,0.00,464.0,meteohub,2013-05-09 15:48:00,
2013-05-09 08:53:00,58.6,48.6,30.20,NW,321,3.0,3.0,69,0.00,,,0.00,480.0,meteohub,2013-05-09 15:53:00,
2013-05-09 08:58:00,59.7,48.7,30.20,NW,321,1.0,4.0,67,0.00,,,0.00,494.0,meteohub,2013-05-09 15:58:00,
2013-05-09 09:03:00,61.0,49.5,30.20,NW,321,3.0,4.0,66,0.00,,,0.00,508.0,meteohub,2013-05-09 16:03:00,
2013-05-09 09:08:00,61.5,49.6,30.20,NW,321,0.0,4.0,65,0.00,,,0.00,524.0,meteohub,2013-05-09 16:08:00,
2013-05-09 09:13:00,62.4,49.6,30.19,WNW,299,1.0,4.0,63,0.00,,,0.00,529.0,meteohub,2013-05-09 16:13:00,
2013-05-09 09:18:00,62.8,50.4,30.19,WNW,297,1.0,4.0,64,0.00,,,0.00,545.0,meteohub,2013-05-09 16:18:00,
2013-05-09 09:23:00,63.3,49.6,30.19,WNW,297,1.0,4.0,61,0.00,,,0.00,561.0,meteohub,2013-05-09 16:23:00,
2013-05-09 09:28:00,62.8,50.4,30.19,WNW,297,0.0,4.0,64,0.00,,,0.00,577.0,meteohub,2013-05-09 16:28:00,
2013-05-09 09:33:00,64.0,49.8,30.18,WNW,297,0.0,3.0,60,0.00,,,0.00,589.0,meteohub,2013-05-09 16:33:00,
2013-05-09 09:38:00,65.3,49.3,30.18,WNW,298,0.0,3.0,56,0.00,,,0.00,601.0,meteohub,2013-05-09 16:38:00,
2013-05-09 09:43:00,64.2,50.0,30.18,WNW,290,2.0,3.0,60,0.00,,,0.00,613.0,meteohub,2013-05-09 16:43:00,
2013-05-09 09:48:00,64.8,51.8,30.17,WNW,289,0.0,4.0,63,0.00,,,0.00,622.0,meteohub,2013-05-09 16:48:00,
2013-05-09 09:53:00,66.0,50.4,30.17,WNW,290,0.0,4.0,57,0.00,,,0.00,635.0,meteohub,2013-05-09 16:53:00,
2013-05-09 09:58:00,65.8,48.7,30.17,WNW,290,1.0,4.0,54,0.00,,,0.00,647.0,meteohub,2013-05-09 16:58:00,
2013-05-09 10:03:00,66.6,49.8,30.17,West,279,2.0,3.0,55,0.00,,,0.00,657.0,meteohub,2013-05-09 17:03:00,
2013-05-09 10:08:00,67.8,50.0,30.17,West,280,0.0,5.0,53,0.00,,,0.00,670.0,meteohub,2013-05-09 17:08:00,
2013-05-09 10:13:00,68.4,50.0,30.17,West,280,0.0,5.0,52,0.00,,,0.00,680.0,meteohub,2013-05-09 17:13:00,
2013-05-09 10:18:00,68.2,51.4,30.16,West,281,3.0,4.0,55,0.00,,,0.00,689.0,meteohub,2013-05-09 17:18:00,
2013-05-09 10:23:00,69.4,53.1,30.16,West,281,2.0,3.0,56,0.00,,,0.00,703.0,meteohub,2013-05-09 17:23:00,
2013-05-09 10:28:00,70.3,49.6,30.16,West,281,2.0,3.0,48,0.00,,,0.00,714.0,meteohub,2013-05-09 17:28:00,
2013-05-09 10:33:00,69.6,50.7,30.16,West,280,1.0,3.0,51,0.00,,,0.00,724.0,meteohub,2013-05-09 17:33:00,
2013-05-09 10:38:00,68.5,51.8,30.15,West,280,1.0,3.0,55,0.00,,,0.00,733.0,meteohub,2013-05-09 17:38:00,
2013-05-09 10:44:00,70.0,49.5,30.15,West,280,1.0,3.0,48,0.00,,,0.00,744.0,meteohub,2013-05-09 17:44:00,
2013-05-09 10:49:00,69.4,50.0,30.15,West,280,1.0,3.0,50,0.00,,,0.00,752.0,meteohub,2013-05-09 17:49:00,
2013-05-09 10:54:00,69.6,53.8,30.15,West,280,0.0,3.0,57,0.00,,,0.00,759.0,meteohub,2013-05-09 17:54:00,
2013-05-09 10:59:00,70.5,50.4,30.15,West,280,0.0,3.0,49,0.00,,,0.00,766.0,meteohub,2013-05-09 17:59:00,
2013-05-09 11:04:00,71.1,51.4,30.14,West,278,3.0,3.0,50,0.00,,,0.00,779.0,meteohub,2013-05-09 18:04:00,
2013-05-09 11:09:00,71.8,49.3,30.14,West,278,0.0,3.0,45,0.00,,,0.00,788.0,meteohub,2013-05-09 18:09:00,
2013-05-09 11:14:00,72.0,50.0,30.14,SE,139,1.0,3.0,46,0.00,,,0.00,796.0,meteohub,2013-05-09 18:14:00,
2013-05-09 11:19:00,71.4,49.6,30.14,SW,218,1.0,3.0,46,0.00,,,0.00,803.0,meteohub,2013-05-09 18:19:00,
2013-05-09 11:24:00,71.4,50.2,30.14,SSW,207,3.0,5.0,47,0.00,,,0.00,807.0,meteohub,2013-05-09 18:24:00,
2013-05-09 11:29:00,71.4,50.2,30.14,SSW,205,1.0,5.0,47,0.00,,,0.00,816.0,meteohub,2013-05-09 18:29:00,
2013-05-09 11:34:00,72.1,52.0,30.14,SSW,202,1.0,6.0,49,0.00,,,0.00,819.0,meteohub,2013-05-09 18:34:00,
2013-05-09 11:39:00,72.3,52.2,30.13,SSW,200,3.0,6.0,49,0.00,,,0.00,826.0,meteohub,2013-05-09 18:39:00,
2013-05-09 11:44:00,72.7,52.3,30.13,SSW,198,3.0,6.0,49,0.00,,,0.00,830.0,meteohub,2013-05-09 18:44:00,
2013-05-09 11:49:00,73.9,50.0,30.13,SW,215,0.0,3.0,43,0.00,,,0.00,833.0,meteohub,2013-05-09 18:49:00,
2013-05-09 11:54:00,74.5,49.3,30.13,WSW,255,1.0,3.0,41,0.00,,,0.00,840.0,meteohub,2013-05-09 18:54:00,
2013-05-09 11:59:00,75.7,51.1,30.13,WNW,285,5.0,5.0,42,0.00,,,0.00,847.0,meteohub,2013-05-09 18:59:00,
2013-05-09 12:04:00,76.8,51.3,30.13,WNW,286,11.0,11.0,41,0.00,,,0.00,849.0,meteohub,2013-05-09 19:04:00,
2013-05-09 12:09:00,77.2,49.6,30.13,West,273,7.0,9.0,38,0.00,,,0.00,853.0,meteohub,2013-05-09 19:09:00,
2013-05-09 12:14:00,77.0,50.9,30.13,West,267,7.0,11.0,40,0.00,,,0.00,856.0,meteohub,2013-05-09 19:14:00,
2013-05-09 12:19:00,76.8,50.0,30.13,West,274,3.0,11.0,39,0.00,,,0.00,858.0,meteohub,2013-05-09 19:19:00,
2013-05-09 12:24:00,77.2,49.6,30.13,WNW,302,4.0,11.0,38,0.00,,,0.00,860.0,meteohub,2013-05-09 19:24:00,
2013-05-09 12:29:00,77.5,50.5,30.12,WNW,286,3.0,10.0,39,0.00,,,0.00,865.0,meteohub,2013-05-09 19:29:00,
2013-05-09 12:34:00,77.5,49.3,30.12,West,278,2.0,10.0,37,0.00,,,0.00,865.0,meteohub,2013-05-09 19:34:00,
2013-05-09 12:39:00,77.5,49.3,30.12,NW,309,3.0,9.0,37,0.00,,,0.00,867.0,meteohub,2013-05-09 19:39:00,
2013-05-09 12:44:00,77.7,49.5,30.12,NW,315,5.0,9.0,37,0.00,,,0.00,867.0,meteohub,2013-05-09 19:44:00,
2013-05-09 12:49:00,78.1,49.6,30.12,WNW,286,5.0,7.0,37,0.00,,,0.00,868.0,meteohub,2013-05-09 19:49:00,
2013-05-09 12:54:00,78.4,50.0,30.12,WNW,292,5.0,9.0,37,0.00,,,0.00,868.0,meteohub,2013-05-09 19:54:00,
2013-05-09 12:59:00,78.8,52.5,30.11,WNW,290,3.0,11.0,40,0.00,,,0.00,867.0,meteohub,2013-05-09 19:59:00,
2013-05-09 13:04:00,79.2,52.2,30.11,WNW,283,6.0,11.0,39,0.00,,,0.00,868.0,meteohub,2013-05-09 20:04:00,
2013-05-09 13:10:00,79.5,50.9,30.11,West,281,3.0,11.0,37,0.00,,,0.00,870.0,meteohub,2013-05-09 20:10:00,
2013-05-09 13:15:00,79.9,51.3,30.11,WNW,303,6.0,10.0,37,0.00,,,0.00,867.0,meteohub,2013-05-09 20:15:00,
2013-05-09 13:20:00,80.2,53.8,30.11,West,269,5.0,11.0,40,0.00,,,0.00,867.0,meteohub,2013-05-09 20:20:00,
2013-05-09 13:25:00,80.4,51.8,30.11,SW,236,7.0,11.0,37,0.00,,,0.00,868.0,meteohub,2013-05-09 20:25:00,
2013-05-09 13:30:00,80.2,51.6,30.11,West,275,2.0,11.0,37,0.00,,,0.00,865.0,meteohub,2013-05-09 20:30:00,
2013-05-09 13:35:00,81.1,52.3,30.11,NW,314,5.0,10.0,37,0.00,,,0.00,863.0,meteohub,2013-05-09 20:35:00,
2013-05-09 13:40:00,81.0,51.4,30.11,WNW,293,4.0,10.0,36,0.00,,,0.00,858.0,meteohub,2013-05-09 20:40:00,
2013-05-09 13:45:00,80.8,51.3,30.11,West,277,6.0,11.0,36,0.00,,,0.00,856.0,meteohub,2013-05-09 20:45:00,
2013-05-09 13:50:00,80.4,51.1,30.10,WSW,246,2.0,12.0,36,0.00,,,0.00,853.0,meteohub,2013-05-09 20:50:00,
2013-05-09 13:55:00,80.8,52.2,30.10,WSW,257,3.0,14.0,37,0.00,,,0.00,847.0,meteohub,2013-05-09 20:55:00,
2013-05-09 14:00:00,80.4,51.1,30.10,West,270,5.0,14.0,36,0.00,,,0.00,846.0,meteohub,2013-05-09 21:00:00,
2013-05-09 14:05:00,81.1,51.6,30.10,WSW,239,1.0,14.0,36,0.00,,,0.00,842.0,meteohub,2013-05-09 21:05:00,
2013-05-09 14:10:00,81.1,52.3,30.10,WNW,290,6.0,11.0,37,0.00,,,0.00,838.0,meteohub,2013-05-09 21:10:00,
2013-05-09 14:15:00,81.7,52.9,30.09,WNW,292,5.0,11.0,37,0.00,,,0.00,830.0,meteohub,2013-05-09 21:15:00,
2013-05-09 14:20:00,81.7,52.2,30.09,WNW,297,5.0,12.0,36,0.00,,,0.00,824.0,meteohub,2013-05-09 21:20:00,
2013-05-09 14:25:00,81.9,52.3,30.09,West,259,5.0,13.0,36,0.00,,,0.00,819.0,meteohub,2013-05-09 21:25:00,
2013-05-09 14:30:00,81.7,52.2,30.09,West,267,4.0,13.0,36,0.00,,,0.00,817.0,meteohub,2013-05-09 21:30:00,
2013-05-09 14:35:00,81.3,51.1,30.09,SW,232,7.0,13.0,35,0.00,,,0.00,812.0,meteohub,2013-05-09 21:35:00,
2013-05-09 14:40:00,81.0,50.7,30.09,West,259,3.0,12.0,35,0.00,,,0.00,803.0,meteohub,2013-05-09 21:40:00,
2013-05-09 14:45:00,81.1,50.9,30.09,WNW,283,4.0,12.0,35,0.00,,,0.00,796.0,meteohub,2013-05-09 21:45:00,
2013-05-09 14:50:00,81.3,51.1,30.08,WNW,290,2.0,11.0,35,0.00,,,0.00,789.0,meteohub,2013-05-09 21:50:00,
2013-05-09 14:55:00,81.9,50.7,30.09,West,280,5.0,10.0,34,0.00,,,0.00,782.0,meteohub,2013-05-09 21:55:00,
2013-05-09 15:00:00,82.0,50.9,30.09,SW,235,4.0,11.0,34,0.00,,,0.00,773.0,meteohub,2013-05-09 22:00:00,
2013-05-09 15:05:00,81.7,50.5,30.08,WSW,239,3.0,13.0,34,0.00,,,0.00,766.0,meteohub,2013-05-09 22:05:00,
2013-05-09 15:10:00,81.9,49.1,30.08,WNW,291,1.0,13.0,32,0.00,,,0.00,758.0,meteohub,2013-05-09 22:10:00,
2013-05-09 15:15:00,82.0,49.3,30.08,WSW,239,4.0,14.0,32,0.00,,,0.00,749.0,meteohub,2013-05-09 22:15:00,
2013-05-09 15:20:00,82.2,49.5,30.08,West,267,12.0,14.0,32,0.00,,,0.00,740.0,meteohub,2013-05-09 22:20:00,
2013-05-09 15:25:00,82.2,48.6,30.08,WNW,288,13.0,14.0,31,0.00,,,0.00,731.0,meteohub,2013-05-09 22:25:00,
2013-05-09 15:30:00,82.0,49.3,30.08,West,266,6.0,15.0,32,0.00,,,0.00,722.0,meteohub,2013-05-09 22:30:00,
2013-05-09 15:35:00,81.9,48.2,30.08,West,266,8.0,15.0,31,0.00,,,0.00,714.0,meteohub,2013-05-09 22:35:00,
2013-05-09 15:40:00,81.7,48.0,30.07,West,277,8.0,18.0,31,0.00,,,0.00,703.0,meteohub,2013-05-09 22:40:00,
2013-05-09 15:45:00,81.3,47.8,30.08,West,267,5.0,18.0,31,0.00,,,0.00,693.0,meteohub,2013-05-09 22:45:00,
2013-05-09 15:51:00,81.3,47.8,30.07,WNW,288,3.0,14.0,31,0.00,,,0.00,682.0,meteohub,2013-05-09 22:51:00,
2013-05-09 15:56:00,81.7,49.8,30.07,West,259,4.0,15.0,33,0.00,,,0.00,670.0,meteohub,2013-05-09 22:56:00,
2013-05-09 16:01:00,81.7,47.3,30.08,WNW,288,5.0,15.0,30,0.00,,,0.00,661.0,meteohub,2013-05-09 23:01:00,
2013-05-09 16:06:00,81.1,48.6,30.08,West,277,6.0,13.0,32,0.00,,,0.00,650.0,meteohub,2013-05-09 23:06:00,
2013-05-09 16:11:00,81.1,46.8,30.08,SW,234,8.0,13.0,30,0.00,,,0.00,636.0,meteohub,2013-05-09 23:11:00,
2013-05-09 16:16:00,81.1,46.8,30.08,SW,233,6.0,12.0,30,0.00,,,0.00,626.0,meteohub,2013-05-09 23:16:00,
2013-05-09 16:21:00,81.3,47.8,30.08,WSW,238,12.0,12.0,31,0.00,,,0.00,615.0,meteohub,2013-05-09 23:21:00,
2013-05-09 16:26:00,81.1,47.7,30.08,West,276,7.0,14.0,31,0.00,,,0.00,603.0,meteohub,2013-05-09 23:26:00,
2013-05-09 16:31:00,81.1,47.7,30.08,NW,309,4.0,14.0,31,0.00,,,0.00,589.0,meteohub,2013-05-09 23:31:00,
2013-05-09 16:36:00,81.0,49.1,30.07,WNW,292,7.0,15.0,33,0.00,,,0.00,580.0,meteohub,2013-05-09 23:36:00,
2013-05-09 16:41:00,80.8,48.9,30.07,WNW,298,11.0,15.0,33,0.00,,,0.00,564.0,meteohub,2013-05-09 23:41:00,
2013-05-09 16:46:00,80.2,49.3,30.07,WNW,293,11.0,15.0,34,0.00,,,0.00,550.0,meteohub,2013-05-09 23:46:00,
2013-05-09 16:51:00,80.1,48.4,30.07,WNW,289,5.0,15.0,33,0.00,,,0.00,538.0,meteohub,2013-05-09 23:51:00,
2013-05-09 16:56:00,80.1,48.4,30.07,NW,306,6.0,15.0,33,0.00,,,0.00,526.0,meteohub,2013-05-09 23:56:00,
2013-05-09 17:01:00,79.9,48.9,30.07,WNW,296,6.0,15.0,34,0.00,,,0.00,515.0,meteohub,2013-05-10 00:01:00,
2013-05-09 17:06:00,79.9,49.8,30.07,NW,318,9.0,14.0,35,0.00,,,0.00,501.0,meteohub,2013-05-10 00:06:00,
2013-05-09 17:11:00,79.9,49.8,30.07,WNW,290,5.0,14.0,35,0.00,,,0.00,487.0,meteohub,2013-05-10 00:11:00,
2013-05-09 17:16:00,79.9,49.8,30.07,WNW,286,2.0,14.0,35,0.00,,,0.00,473.0,meteohub,2013-05-10 00:16:00,
2013-05-09 17:21:00,79.5,49.5,30.07,WNW,302,7.0,17.0,35,0.00,,,0.00,461.0,meteohub,2013-05-10 00:21:00,
2013-05-09 17:26:00,79.3,50.0,30.08,SW,236,4.0,17.0,36,0.00,,,0.00,446.0,meteohub,2013-05-10 00:26:00,
2013-05-09 17:31:00,79.3,50.0,30.08,WNW,286,9.0,17.0,36,0.00,,,0.00,432.0,meteohub,2013-05-10 00:31:00,
2013-05-09 17:36:00,79.0,50.5,30.08,NW,317,6.0,14.0,37,0.00,,,0.00,418.0,meteohub,2013-05-10 00:36:00,
2013-05-09 17:41:00,78.8,50.4,30.08,NW,311,6.0,14.0,37,0.00,,,0.00,404.0,meteohub,2013-05-10 00:41:00,
2013-05-09 17:46:00,78.6,50.2,30.08,West,273,9.0,17.0,37,0.00,,,0.00,392.0,meteohub,2013-05-10 00:46:00,
2013-05-09 17:51:00,78.6,50.2,30.08,NW,316,5.0,17.0,37,0.00,,,0.00,380.0,meteohub,2013-05-10 00:51:00,
2013-05-09 17:56:00,78.6,50.2,30.07,WNW,303,2.0,13.0,37,0.00,,,0.00,367.0,meteohub,2013-05-10 00:56:00,
2013-05-09 18:01:00,78.6,50.2,30.07,NW,310,1.0,13.0,37,0.00,,,0.00,352.0,meteohub,2013-05-10 01:01:00,
2013-05-09 18:06:00,78.8,50.4,30.07,WNW,287,9.0,12.0,37,0.00,,,0.00,338.0,meteohub,2013-05-10 01:06:00,
2013-05-09 18:11:00,78.6,50.9,30.07,WNW,288,2.0,9.0,38,0.00,,,0.00,323.0,meteohub,2013-05-10 01:11:00,
2013-05-09 18:16:00,78.6,50.2,30.07,WNW,296,1.0,9.0,37,0.00,,,0.00,309.0,meteohub,2013-05-10 01:16:00,
2013-05-09 18:21:00,78.6,50.9,30.07,NNW,329,6.0,9.0,38,0.00,,,0.00,294.0,meteohub,2013-05-10 01:21:00,
2013-05-09 18:26:00,78.6,50.9,30.07,NW,317,4.0,9.0,38,0.00,,,0.00,281.0,meteohub,2013-05-10 01:26:00,
2013-05-09 18:31:00,78.3,51.3,30.07,NW,321,4.0,7.0,39,0.00,,,0.00,269.0,meteohub,2013-05-10 01:31:00,
2013-05-09 18:36:00,77.9,50.9,30.07,NNW,336,2.0,8.0,39,0.00,,,0.00,255.0,meteohub,2013-05-10 01:36:00,
2013-05-09 18:42:00,77.5,51.3,30.07,NW,304,0.0,8.0,40,0.00,,,0.00,241.0,meteohub,2013-05-10 01:42:00,
2013-05-09 18:47:00,77.2,51.1,30.07,WNW,303,1.0,11.0,40,0.00,,,0.00,227.0,meteohub,2013-05-10 01:47:00,
2013-05-09 18:52:00,77.0,52.2,30.07,WNW,287,1.0,11.0,42,0.00,,,0.00,211.0,meteohub,2013-05-10 01:52:00,
2013-05-09 18:57:00,76.8,50.7,30.08,WNW,290,2.0,9.0,40,0.00,,,0.00,35.0,meteohub,2013-05-10 01:57:00,
2013-05-09 19:02:00,76.5,52.3,30.08,WNW,292,2.0,9.0,43,0.00,,,0.00,33.0,meteohub,2013-05-10 02:02:00,
2013-05-09 19:07:00,75.7,53.4,30.08,NW,316,0.0,3.0,46,0.00,,,0.00,30.0,meteohub,2013-05-10 02:07:00,
2013-05-09 19:12:00,75.0,53.4,30.08,WNW,294,1.0,5.0,47,0.00,,,0.00,28.0,meteohub,2013-05-10 02:12:00,
2013-05-09 19:17:00,74.1,53.2,30.09,WNW,294,0.0,5.0,48,0.00,,,0.00,26.0,meteohub,2013-05-10 02:17:00,
2013-05-09 19:22:00,73.2,53.4,30.09,WNW,286,1.0,5.0,50,0.00,,,0.00,25.0,meteohub,2013-05-10 02:22:00,
2013-05-09 19:27:00,72.5,53.4,30.09,WNW,286,1.0,3.0,51,0.00,,,0.00,21.0,meteohub,2013-05-10 02:27:00,
2013-05-09 19:32:00,71.2,53.2,30.09,WNW,285,0.0,3.0,53,0.00,,,0.00,21.0,meteohub,2013-05-10 02:32:00,
2013-05-09 19:37:00,70.3,52.3,30.09,WNW,285,0.0,3.0,53,0.00,,,0.00,19.0,meteohub,2013-05-10 02:37:00,
2013-05-09 19:42:00,69.4,53.1,30.09,WNW,285,1.0,3.0,56,0.00,,,0.00,18.0,meteohub,2013-05-10 02:42:00,
2013-05-09 19:47:00,68.7,52.9,30.10,WNW,285,0.0,2.0,57,0.00,,,0.00,16.0,meteohub,2013-05-10 02:47:00,
2013-05-09 19:52:00,67.8,52.5,30.10,WNW,285,1.0,3.0,58,0.00,,,0.00,14.0,meteohub,2013-05-10 02:52:00,
2013-05-09 19:57:00,67.3,52.0,30.10,WNW,285,0.0,3.0,58,0.00,,,0.00,12.0,meteohub,2013-05-10 02:57:00,
2013-05-09 20:02:00,66.7,51.4,30.11,WNW,285,0.0,3.0,58,0.00,,,0.00,12.0,meteohub,2013-05-10 03:02:00,
2013-05-09 20:07:00,66.0,52.2,30.11,WNW,285,0.0,2.0,61,0.00,,,0.00,11.0,meteohub,2013-05-10 03:07:00,
2013-05-09 20:12:00,65.5,52.2,30.11,WNW,285,0.0,2.0,62,0.00,,,0.00,9.0,meteohub,2013-05-10 03:12:00,
2013-05-09 20:17:00,64.9,51.6,30.12,WNW,285,0.0,2.0,62,0.00,,,0.00,7.0,meteohub,2013-05-10 03:17:00,
2013-05-09 20:22:00,64.6,51.6,30.12,WNW,285,0.0,2.0,63,0.00,,,0.00,5.0,meteohub,2013-05-10 03:22:00,
2013-05-09 20:27:00,64.0,51.3,30.12,WNW,285,0.0,0.0,63,0.00,,,0.00,5.0,meteohub,2013-05-10 03:27:00,
2013-05-09 20:32:00,63.7,51.3,30.12,WNW,285,0.0,1.0,64,0.00,,,0.00,0.0,meteohub,2013-05-10 03:32:00,
2013-05-09 20:37:00,63.1,51.3,30.12,WNW,285,0.0,1.0,65,0.00,,,0.00,0.0,meteohub,2013-05-10 03:37:00,
2013-05-09 20:42:00,63.0,51.4,30.12,WNW,285,0.0,1.0,66,0.00,,,0.00,0.0,meteohub,2013-05-10 03:42:00,
2013-05-09 20:47:00,62.6,51.1,30.12,WNW,285,0.0,2.0,66,0.00,,,0.00,0.0,meteohub,2013-05-10 03:47:00,
2013-05-09 20:52:00,62.1,50.9,30.12,WNW,285,0.0,2.0,67,0.00,,,0.00,0.0,meteohub,2013-05-10 03:52:00,
2013-05-09 20:57:00,61.9,50.7,30.13,WNW,285,0.0,2.0,67,0.00,,,0.00,0.0,meteohub,2013-05-10 03:57:00,
2013-05-09 21:01:00,61.3,50.7,30.13,WNW,285,0.0,1.0,68,0.00,,,0.00,0.0,meteohub,2013-05-10 04:01:00,
2013-05-09 21:02:00,61.3,50.7,30.13,WNW,285,0.0,1.0,68,0.00,,,0.00,0.0,meteohub,2013-05-10 04:02:00,
2013-05-09 21:05:00,61.0,50.4,30.13,WNW,285,0.0,1.0,68,0.00,,,0.00,0.0,meteohub,2013-05-10 04:05:00,
2013-05-09 21:10:00,60.4,50.2,30.14,WNW,285,0.0,2.0,69,0.00,,,0.00,0.0,meteohub,2013-05-10 04:10:00,
2013-05-09 21:15:00,60.1,50.2,30.14,WNW,285,0.0,2.0,70,0.00,,,0.00,0.0,meteohub,2013-05-10 04:15:00,
2013-05-09 21:20:00,59.7,50.0,30.14,WNW,285,0.0,1.0,70,0.00,,,0.00,0.0,meteohub,2013-05-10 04:20:00,
2013-05-09 21:26:00,59.4,50.0,30.14,WNW,285,0.0,1.0,71,0.00,,,0.00,0.0,meteohub,2013-05-10 04:26:00,
2013-05-09 21:31:00,59.0,49.6,30.14,WNW,285,0.0,0.0,71,0.00,,,0.00,0.0,meteohub,2013-05-10 04:31:00,
2013-05-09 21:36:00,58.8,49.8,30.15,WNW,285,0.0,0.0,72,0.00,,,0.00,0.0,meteohub,2013-05-10 04:36:00,
2013-05-09 21:41:00,58.6,50.0,30.15,WNW,285,1.0,1.0,73,0.00,,,0.00,0.0,meteohub,2013-05-10 04:41:00,
2013-05-09 21:46:00,58.5,50.9,30.15,WNW,285,0.0,1.0,76,0.00,,,0.00,0.0,meteohub,2013-05-10 04:46:00,
2013-05-09 21:51:00,58.1,50.9,30.15,WNW,285,0.0,2.0,77,0.00,,,0.00,0.0,meteohub,2013-05-10 04:51:00,
2013-05-09 21:56:00,57.7,50.5,30.16,WNW,285,0.0,2.0,77,0.00,,,0.00,0.0,meteohub,2013-05-10 04:56:00,
2013-05-09 22:01:00,57.6,50.0,30.16,WNW,285,0.0,2.0,76,0.00,,,0.00,0.0,meteohub,2013-05-10 05:01:00,
2013-05-09 22:06:00,57.2,50.0,30.16,WNW,285,0.0,2.0,77,0.00,,,0.00,0.0,meteohub,2013-05-10 05:06:00,
2013-05-09 22:11:00,57.0,49.8,30.16,WNW,285,0.0,1.0,77,0.00,,,0.00,0.0,meteohub,2013-05-10 05:11:00,
2013-05-09 22:16:00,56.8,50.0,30.16,WNW,285,0.0,1.0,78,0.00,,,0.00,0.0,meteohub,2013-05-10 05:16:00,
2013-05-09 22:21:00,56.7,49.8,30.16,WNW,285,1.0,0.0,78,0.00,,,0.00,0.0,meteohub,2013-05-10 05:21:00,
2013-05-09 22:26:00,56.5,49.6,30.17,WNW,285,0.0,1.0,78,0.00,,,0.00,0.0,meteohub,2013-05-10 05:26:00,
2013-05-09 22:31:00,56.1,49.6,30.17,WNW,285,0.0,1.0,79,0.00,,,0.00,0.0,meteohub,2013-05-10 05:31:00,
2013-05-09 22:36:00,55.9,49.5,30.17,WNW,285,0.0,1.0,79,0.00,,,0.00,0.0,meteohub,2013-05-10 05:36:00,
2013-05-09 22:41:00,55.8,48.9,30.17,WNW,285,0.0,1.0,78,0.00,,,0.00,0.0,meteohub,2013-05-10 05:41:00,
2013-05-09 22:46:00,55.6,49.5,30.17,WNW,285,0.0,1.0,80,0.00,,,0.00,0.0,meteohub,2013-05-10 05:46:00,
2013-05-09 22:51:00,55.2,48.7,30.17,WNW,285,0.0,1.0,79,0.00,,,0.00,0.0,meteohub,2013-05-10 05:51:00,
2013-05-09 22:56:00,55.0,49.3,30.17,WNW,285,0.0,1.0,81,0.00,,,0.00,0.0,meteohub,2013-05-10 05:56:00,
2013-05-09 23:01:00,55.0,48.9,30.17,WNW,285,0.0,1.0,80,0.00,,,0.00,0.0,meteohub,2013-05-10 06:01:00,
2013-05-09 23:06:00,54.9,49.5,30.18,WNW,285,0.0,1.0,82,0.00,,,0.00,0.0,meteohub,2013-05-10 06:06:00,
2013-05-09 23:11:00,54.7,49.3,30.18,WNW,285,0.0,0.0,82,0.00,,,0.00,0.0,meteohub,2013-05-10 06:11:00,
2013-05-09 23:16:00,54.5,49.1,30.18,WNW,285,0.0,0.0,82,0.00,,,0.00,0.0,meteohub,2013-05-10 06:16:00,
2013-05-09 23:21:00,54.1,48.4,30.18,WNW,285,0.0,1.0,81,0.00,,,0.00,0.0,meteohub,2013-05-10 06:21:00,
2013-05-09 23:26:00,54.1,48.4,30.18,WNW,285,0.0,1.0,81,0.00,,,0.00,0.0,meteohub,2013-05-10 06:26:00,
2013-05-09 23:31:00,54.0,48.2,30.18,WNW,285,0.0,1.0,81,0.00,,,0.00,0.0,meteohub,2013-05-10 06:31:00,
2013-05-09 23:36:00,53.8,48.4,30.19,WNW,285,0.0,0.0,82,0.00,,,0.00,0.0,meteohub,2013-05-10 06:36:00,
2013-05-09 23:41:00,53.6,48.2,30.19,WNW,285,0.0,0.0,82,0.00,,,0.00,0.0,meteohub,2013-05-10 06:41:00,
2013-05-09 23:46:00,53.4,48.0,30.19,WNW,285,0.0,0.0,82,0.00,,,0.00,0.0,meteohub,2013-05-10 06:46:00,
2013-05-09 23:51:00,53.2,47.8,30.19,WNW,285,0.0,0.0,82,0.00,,,0.00,0.0,meteohub,2013-05-10 06:51:00,
2013-05-09 23:56:00,53.1,47.7,30.19,WNW,285,1.0,0.0,82,0.00,,,0.00,0.0,meteohub,2013-05-10 06:56:00,